createdAt,value
2022-12-11T00:00:05.223Z,100574.53
2022-12-11T00:05:07.575Z,100574.53
2022-12-11T00:10:09.535Z,100572.75
2022-12-11T00:15:11.626Z,100568.28
2022-12-11T00:20:13.347Z,100569.38
2022-12-11T00:25:14.909Z,100565.22
2022-12-11T00:30:16.506Z,100572.72
2022-12-11T00:35:18.295Z,100570.38
2022-12-11T00:40:19.849Z,100561.47
2022-12-11T00:45:21.372Z,100556.03
2022-12-11T00:50:23.030Z,100563.59
2022-12-11T00:55:24.536Z,100565.34
2022-12-11T01:00:26.116Z,100555.13
2022-12-11T01:05:27.840Z,100560.88
2022-12-11T01:10:29.455Z,100558.56
2022-12-11T01:15:41.331Z,100553.53
2022-12-11T01:20:43.607Z,100561.28
2022-12-11T01:25:45.387Z,100563.19
2022-12-11T01:30:46.983Z,100555.88
2022-12-11T01:35:48.507Z,100545.41
2022-12-11T01:40:51.944Z,100552.22
2022-12-11T01:45:53.532Z,100551.00
2022-12-11T01:51:01.124Z,100551.00
2022-12-11T01:56:03.647Z,100552.09
2022-12-11T02:01:06.413Z,100547.06
2022-12-11T02:06:32.609Z,100547.81
2022-12-11T02:12:09.403Z,100545.50
2022-12-11T02:17:23.035Z,100533.81
2022-12-11T02:22:55.966Z,100536.34
2022-12-11T02:28:18.662Z,100531.56
2022-12-11T02:33:28.492Z,100535.78
2022-12-11T02:38:36.913Z,100527.63
2022-12-11T02:43:40.137Z,100525.03
2022-12-11T02:48:42.798Z,100528.13
2022-12-11T02:53:46.377Z,100526.47
2022-12-11T02:58:58.353Z,100523.84
2022-12-11T03:04:00.425Z,100520.22
2022-12-11T03:09:11.340Z,100522.16
2022-12-11T03:14:18.154Z,100516.47
2022-12-11T03:19:38.415Z,100521.88
2022-12-11T03:24:53.022Z,100521.72
2022-12-11T03:30:00.051Z,100529.09
2022-12-11T03:35:18.935Z,100522.41
2022-12-11T03:40:22.905Z,100532.34
2022-12-11T03:45:26.761Z,100527.31
2022-12-11T03:50:32.110Z,100521.16
2022-12-11T03:55:36.968Z,100517.66
2022-12-11T04:00:38.542Z,100524.31
2022-12-11T04:05:42.056Z,100517.75
2022-12-11T04:10:43.802Z,100512.34
2022-12-11T04:15:45.321Z,100500.13
2022-12-11T04:20:46.833Z,100494.25
2022-12-11T04:25:48.425Z,100496.97
2022-12-11T04:30:50.076Z,100498.91
2022-12-11T04:35:51.726Z,100501.88
2022-12-11T04:41:01.059Z,100500.53
2022-12-11T04:46:08.263Z,100498.91
2022-12-11T04:51:12.012Z,100498.53
2022-12-11T04:56:16.016Z,100488.75
2022-12-11T05:01:20.682Z,100489.09
2022-12-11T05:06:22.207Z,100487.63
2022-12-11T05:11:24.144Z,100484.09
2022-12-11T05:16:25.761Z,100485.84
2022-12-11T05:21:33.228Z,100480.13
2022-12-11T05:26:36.454Z,100478.94
2022-12-11T05:31:38.149Z,100474.00
2022-12-11T05:36:40.076Z,100471.03
2022-12-11T05:41:41.670Z,100475.50
2022-12-11T05:46:43.221Z,100467.34
2022-12-11T05:51:44.844Z,100477.13
2022-12-11T05:56:46.595Z,100465.97
2022-12-11T06:01:48.269Z,100471.25
2022-12-11T06:06:49.894Z,100474.81
2022-12-11T06:11:51.537Z,100469.47
2022-12-11T06:16:53.078Z,100470.31
2022-12-11T06:21:54.688Z,100471.94
2022-12-11T06:26:56.215Z,100463.63
2022-12-11T06:31:57.827Z,100465.28
2022-12-11T06:36:59.361Z,100466.78
2022-12-11T06:42:00.980Z,100463.50
2022-12-11T06:47:03.818Z,100460.13
2022-12-11T06:52:06.410Z,100463.25
2022-12-11T06:57:09.589Z,100471.44
2022-12-11T07:02:18.652Z,100463.81
2022-12-11T07:07:20.239Z,100469.78
2022-12-11T07:12:21.848Z,100474.00
2022-12-11T07:17:23.315Z,100480.97
2022-12-11T07:22:24.890Z,100489.66
2022-12-11T07:27:26.388Z,100485.16
2022-12-11T07:32:28.036Z,100477.50
2022-12-11T07:37:29.639Z,100477.38
2022-12-11T07:42:31.170Z,100474.50
2022-12-11T07:47:33.560Z,100477.63
2022-12-11T07:52:35.105Z,100476.13
2022-12-11T07:57:37.048Z,100473.69
2022-12-11T08:02:38.601Z,100480.31
2022-12-11T08:07:40.146Z,100476.91
2022-12-11T08:12:41.841Z,100483.56
2022-12-11T08:17:43.339Z,100484.06
2022-12-11T08:22:44.950Z,100479.06
2022-12-11T08:27:46.491Z,100470.78
2022-12-11T08:32:48.033Z,100473.22
2022-12-11T08:37:49.533Z,100472.59
2022-12-11T08:42:51.108Z,100472.47
2022-12-11T08:47:52.747Z,100466.41
2022-12-11T08:52:54.972Z,100469.56
2022-12-11T08:57:56.598Z,100475.56
2022-12-11T09:02:58.147Z,100483.59
2022-12-11T09:07:59.745Z,100476.53
2022-12-11T09:13:01.461Z,100478.66
2022-12-11T09:18:03.154Z,100475.81
2022-12-11T09:23:04.792Z,100478.84
2022-12-11T09:28:06.349Z,100475.72
2022-12-11T09:33:07.936Z,100477.47
2022-12-11T09:38:09.710Z,100480.03
2022-12-11T09:43:36.198Z,100475.44
2022-12-11T09:48:39.718Z,100480.19
2022-12-11T09:53:41.409Z,100479.00
2022-12-11T09:59:04.013Z,100475.56
2022-12-11T10:04:33.226Z,100483.75
2022-12-11T10:09:56.168Z,100469.50
2022-12-11T10:15:34.836Z,100457.66
2022-12-11T10:20:37.852Z,100455.78
2022-12-11T10:25:48.087Z,100447.06
2022-12-11T10:30:58.637Z,100446.09
2022-12-11T10:36:00.689Z,100443.41
2022-12-11T10:41:11.842Z,100436.03
2022-12-11T10:46:22.983Z,100423.22
2022-12-11T10:51:33.627Z,100415.06
2022-12-11T10:56:37.720Z,100419.44
2022-12-11T11:01:39.376Z,100422.19
2022-12-11T11:06:41.540Z,100413.03
2022-12-11T11:11:50.079Z,100421.09
2022-12-11T11:16:55.360Z,100408.69
2022-12-11T11:22:12.732Z,100401.75
2022-12-11T11:27:35.652Z,100393.81
2022-12-11T11:32:41.355Z,100386.38
2022-12-11T11:37:53.406Z,100383.63
2022-12-11T11:43:19.355Z,100376.81
2022-12-11T11:48:35.938Z,100371.59
2022-12-11T11:53:39.546Z,100375.94
2022-12-11T11:58:48.007Z,100367.22
2022-12-11T12:03:52.264Z,100370.50
2022-12-11T12:09:05.883Z,100367.31
2022-12-11T12:14:22.785Z,100374.03
2022-12-11T12:19:42.993Z,100378.13
2022-12-11T12:25:22.320Z,100379.91
2022-12-11T12:30:24.390Z,100380.06
2022-12-11T12:35:30.607Z,100368.38
2022-12-11T12:40:53.674Z,100365.09
2022-12-11T12:46:21.115Z,100353.22
2022-12-11T12:51:23.662Z,100341.72
2022-12-11T12:56:27.582Z,100343.09
2022-12-11T13:01:31.173Z,100343.97
2022-12-11T13:06:41.090Z,100341.13
2022-12-11T13:11:43.708Z,100341.41
2022-12-11T13:16:55.503Z,100348.47
2022-12-11T13:22:06.273Z,100343.44
2022-12-11T13:27:22.954Z,100344.94
2022-12-11T13:32:30.709Z,100347.16
2022-12-11T13:37:41.388Z,100347.00
2022-12-11T13:42:57.011Z,100347.41
2022-12-11T13:47:59.617Z,100345.06
2022-12-11T13:53:03.286Z,100351.72
2022-12-11T13:58:16.616Z,100357.84
2022-12-11T14:03:18.664Z,100359.31
2022-12-11T14:08:30.155Z,100368.47
2022-12-11T14:13:36.085Z,100367.56
2022-12-11T14:18:38.489Z,100369.03
2022-12-11T14:23:40.062Z,100363.59
2022-12-11T14:28:43.324Z,100375.59
2022-12-11T14:33:50.405Z,100373.84
2022-12-11T14:38:57.434Z,100370.84
2022-12-11T14:44:01.148Z,100373.97
2022-12-11T14:49:13.095Z,100378.06
2022-12-11T14:54:23.516Z,100379.16
2022-12-11T14:59:31.659Z,100376.28
2022-12-11T15:04:33.647Z,100378.59
2022-12-11T15:09:35.077Z,100382.41
2022-12-11T15:14:47.445Z,100382.13
2022-12-11T15:19:53.386Z,100381.72
2022-12-11T15:24:55.428Z,100380.88
2022-12-11T15:29:57.473Z,100383.50
2022-12-11T15:34:59.874Z,100389.50
2022-12-11T15:40:02.862Z,100396.03
2022-12-11T15:45:16.294Z,100395.34
2022-12-11T15:50:17.781Z,100391.00
2022-12-11T15:55:21.183Z,100395.47
2022-12-11T16:00:23.223Z,100402.03
2022-12-11T16:05:25.690Z,100403.78
2022-12-11T16:10:27.308Z,100403.53
2022-12-11T16:15:29.285Z,100400.66
2022-12-11T16:20:31.677Z,100395.63
2022-12-11T16:25:33.848Z,100403.09
2022-12-11T16:30:37.391Z,100400.78
2022-12-11T16:35:39.589Z,100397.38
2022-12-11T16:40:41.178Z,100398.34
2022-12-11T16:45:44.017Z,100393.56
2022-12-11T16:50:45.762Z,100398.91
2022-12-11T16:55:47.769Z,100394.13
2022-12-11T17:00:49.833Z,100400.25
2022-12-11T17:05:51.837Z,100383.94
2022-12-11T17:10:53.584Z,100388.13
2022-12-11T17:15:55.627Z,100392.75
2022-12-11T17:20:57.325Z,100393.28
2022-12-11T17:25:58.944Z,100391.69
2022-12-11T17:31:04.742Z,100390.03
2022-12-11T17:36:07.403Z,100388.00
2022-12-11T17:41:16.962Z,100392.88
2022-12-11T17:46:21.909Z,100389.75
2022-12-11T17:51:26.415Z,100387.16
2022-12-11T17:56:28.106Z,100384.31
2022-12-11T18:01:29.857Z,100378.44
2022-12-11T18:06:32.062Z,100381.97
2022-12-11T18:11:33.862Z,100376.94
2022-12-11T18:16:37.131Z,100381.66
2022-12-11T18:21:41.492Z,100388.16
2022-12-11T18:26:43.195Z,100388.31
2022-12-11T18:31:45.132Z,100383.97
2022-12-11T18:36:46.973Z,100389.16
2022-12-11T18:42:03.458Z,100395.13
2022-12-11T18:47:10.281Z,100385.75
2022-12-11T18:52:12.025Z,100390.63
2022-12-11T18:57:13.644Z,100389.81
2022-12-11T19:02:15.648Z,100398.53
2022-12-11T19:07:17.304Z,100388.19
2022-12-11T19:12:18.833Z,100398.16
2022-12-11T19:17:20.538Z,100393.25
2022-12-11T19:22:22.090Z,100405.94
2022-12-11T19:27:23.871Z,100391.50
2022-12-11T19:32:26.229Z,100392.59
2022-12-11T19:37:27.743Z,100391.25
2022-12-11T19:42:29.318Z,100391.53
2022-12-11T19:47:31.020Z,100393.44
2022-12-11T19:52:33.045Z,100387.56
2022-12-11T19:57:35.027Z,100383.59
2022-12-11T20:02:36.586Z,100382.34
2022-12-11T20:07:38.074Z,100382.44
2022-12-11T20:12:39.659Z,100383.94
2022-12-11T20:17:41.244Z,100389.13
2022-12-11T20:22:42.831Z,100387.94
2022-12-11T20:27:44.554Z,100390.25
2022-12-11T20:32:46.126Z,100385.59
2022-12-11T20:37:47.632Z,100379.09
2022-12-11T20:42:49.148Z,100379.06
2022-12-11T20:47:50.980Z,100377.66
2022-12-11T20:52:52.526Z,100368.03
2022-12-11T20:57:54.678Z,100382.59
2022-12-11T21:02:56.165Z,100380.84
2022-12-11T21:07:57.763Z,100377.47
2022-12-11T21:12:59.343Z,100379.63
2022-12-11T21:18:00.838Z,100386.81
2022-12-11T21:23:03.576Z,100378.22
2022-12-11T21:28:05.196Z,100380.16
2022-12-11T21:33:07.400Z,100377.47
2022-12-11T21:38:09.401Z,100382.09
2022-12-11T21:43:10.943Z,100383.94
2022-12-11T21:48:14.762Z,100385.06
2022-12-11T21:53:16.521Z,100384.66
2022-12-11T21:58:18.153Z,100382.78
2022-12-11T22:03:19.773Z,100394.59
2022-12-11T22:08:22.020Z,100394.59
2022-12-11T22:13:24.469Z,100386.13
2022-12-11T22:18:25.994Z,100401.13
2022-12-11T22:23:27.626Z,100402.28
2022-12-11T22:28:29.367Z,100409.41
2022-12-11T22:33:30.897Z,100410.72
2022-12-11T22:38:34.477Z,100419.28
2022-12-11T22:43:35.954Z,100418.25
2022-12-11T22:48:37.431Z,100419.75
2022-12-11T22:53:39.297Z,100419.47
2022-12-11T22:58:40.889Z,100420.84
2022-12-11T23:03:42.618Z,100415.69
2022-12-11T23:08:44.488Z,100412.44
2022-12-11T23:13:46.236Z,100413.03
2022-12-11T23:18:47.760Z,100415.09
2022-12-11T23:23:49.795Z,100410.16
2022-12-11T23:28:51.503Z,100415.84
2022-12-11T23:33:53.489Z,100417.41
2022-12-11T23:38:55.436Z,100416.22
2022-12-11T23:43:56.935Z,100422.38
2022-12-11T23:48:58.527Z,100420.63
2022-12-11T23:54:00.285Z,100436.09
2022-12-11T23:59:01.866Z,100429.50
